createdAt,value
2019-04-13T00:02:12.876Z,101757.47
2019-04-13T00:04:52.602Z,101762.19
2019-04-13T00:07:23.028Z,101758.73
2019-04-13T00:09:52.645Z,101759.16
2019-04-13T00:12:31.851Z,101760.46
2019-04-13T00:15:01.686Z,101755.72
2019-04-13T00:17:31.246Z,101762.19
2019-04-13T00:20:00.815Z,101755.30
2019-04-13T00:22:30.377Z,101753.14
2019-04-13T00:24:59.954Z,101749.70
2019-04-13T00:27:29.496Z,101749.25
2019-04-13T00:29:59.089Z,101744.11
2019-04-13T00:32:28.642Z,101742.83
2019-04-13T00:34:58.169Z,101739.83
2019-04-13T00:37:27.791Z,101743.69
2019-04-13T00:39:57.337Z,101747.12
2019-04-13T00:42:26.898Z,101741.52
2019-04-13T00:44:56.461Z,101733.35
2019-04-13T00:47:26.293Z,101736.80
2019-04-13T00:49:55.824Z,101735.93
2019-04-13T00:52:25.353Z,101733.77
2019-04-13T00:54:54.887Z,101732.91
2019-04-13T00:57:24.458Z,101734.20
2019-04-13T00:59:54.011Z,101721.72
2019-04-13T01:02:23.553Z,101739.38
2019-04-13T01:04:53.944Z,101730.34
2019-04-13T01:07:23.621Z,101728.61
2019-04-13T01:09:53.188Z,101720.01
2019-04-13T01:12:22.733Z,101722.17
2019-04-13T01:14:52.266Z,101720.87
2019-04-13T01:17:21.828Z,101726.04
2019-04-13T01:19:51.365Z,101725.60
2019-04-13T01:22:20.898Z,101723.02
2019-04-13T01:24:50.526Z,101726.89
2019-04-13T01:27:20.055Z,101725.62
2019-04-13T01:29:49.593Z,101728.17
2019-04-13T01:32:19.178Z,101727.74
2019-04-13T01:34:48.754Z,101722.14
2019-04-13T01:37:18.260Z,101724.74
2019-04-13T01:39:47.839Z,101727.75
2019-04-13T01:42:17.388Z,101726.45
2019-04-13T01:44:46.966Z,101717.84
2019-04-13T01:47:16.496Z,101721.28
2019-04-13T01:49:46.018Z,101718.27
2019-04-13T01:52:15.552Z,101716.95
2019-04-13T01:54:45.211Z,101719.55
2019-04-13T01:57:14.713Z,101718.25
2019-04-13T01:59:44.319Z,101717.40
2019-04-13T02:02:16.310Z,101716.11
2019-04-13T02:04:59.876Z,101713.52
2019-04-13T02:07:37.249Z,101713.53
2019-04-13T02:10:08.736Z,101711.80
2019-04-13T02:12:38.269Z,101704.90
2019-04-13T02:15:09.377Z,101707.06
2019-04-13T02:17:38.923Z,101700.58
2019-04-13T02:20:08.775Z,101702.72
2019-04-13T02:22:38.305Z,101700.12
2019-04-13T02:25:08.368Z,101694.54
2019-04-13T02:27:38.321Z,101696.67
2019-04-13T02:30:08.902Z,101694.94
2019-04-13T02:32:38.472Z,101696.67
2019-04-13T02:35:08.334Z,101692.35
2019-04-13T02:37:37.865Z,101691.08
2019-04-13T02:40:07.819Z,101695.36
2019-04-13T02:42:37.566Z,101694.95
2019-04-13T02:45:08.940Z,101699.25
2019-04-13T02:47:38.476Z,101701.41
2019-04-13T02:50:08.827Z,101702.28
2019-04-13T02:52:38.359Z,101693.23
2019-04-13T02:55:08.429Z,101694.95
2019-04-13T02:57:38.064Z,101700.12
2019-04-13T03:00:08.376Z,101695.84
2019-04-13T03:02:37.883Z,101706.55
2019-04-13T03:05:08.390Z,101701.83
2019-04-13T03:07:38.004Z,101703.56
2019-04-13T03:10:09.416Z,101709.98
2019-04-13T03:12:39.176Z,101701.80
2019-04-13T03:15:10.277Z,101698.80
2019-04-13T03:17:41.635Z,101704.37
2019-04-13T03:20:22.285Z,101699.20
2019-04-13T03:22:51.917Z,101701.36
2019-04-13T03:25:21.557Z,101699.20
2019-04-13T03:27:51.158Z,101701.80
2019-04-13T03:30:25.402Z,101697.05
2019-04-13T03:32:55.042Z,101696.62
2019-04-13T03:35:24.606Z,101699.20
2019-04-13T03:37:54.167Z,101694.89
2019-04-13T03:40:23.696Z,101695.35
2019-04-13T03:42:53.243Z,101699.67
2019-04-13T03:45:22.767Z,101694.92
2019-04-13T03:47:52.320Z,101693.20
2019-04-13T03:50:21.855Z,101692.77
2019-04-13T03:52:51.406Z,101693.20
2019-04-13T03:55:21.156Z,101694.52
2019-04-13T03:57:50.694Z,101688.47
2019-04-13T04:00:20.346Z,101691.05
2019-04-13T04:02:49.868Z,101694.04
2019-04-13T04:05:19.508Z,101697.04
2019-04-13T04:07:49.058Z,101698.75
2019-04-13T04:10:18.859Z,101691.42
2019-04-13T04:12:48.439Z,101693.98
2019-04-13T04:15:18.233Z,101688.38
2019-04-13T04:17:47.779Z,101696.13
2019-04-13T04:20:17.327Z,101698.71
2019-04-13T04:22:47.182Z,101697.42
2019-04-13T04:25:16.713Z,101704.27
2019-04-13T04:27:46.315Z,101696.52
2019-04-13T04:30:19.059Z,101700.81
2019-04-13T04:32:48.616Z,101693.08
2019-04-13T04:35:18.174Z,101694.36
2019-04-13T04:37:47.736Z,101699.55
2019-04-13T04:40:17.256Z,101700.39
2019-04-13T04:42:46.853Z,101697.80
2019-04-13T04:45:16.406Z,101702.94
2019-04-13T04:47:45.961Z,101697.34
2019-04-13T04:50:15.500Z,101701.23
2019-04-13T04:52:45.038Z,101699.92
2019-04-13T04:55:14.686Z,101699.03
2019-04-13T04:57:44.279Z,101693.86
2019-04-13T05:00:14.267Z,101698.61
2019-04-13T05:02:43.818Z,101700.30
2019-04-13T05:05:13.396Z,101707.15
2019-04-13T05:07:43.016Z,101705.46
2019-04-13T05:10:12.696Z,101696.42
2019-04-13T05:12:42.329Z,101698.59
2019-04-13T05:15:12.052Z,101699.46
2019-04-13T05:17:41.610Z,101700.75
2019-04-13T05:20:11.321Z,101708.02
2019-04-13T05:22:40.866Z,101711.00
2019-04-13T05:25:10.572Z,101719.17
2019-04-13T05:27:40.191Z,101717.89
2019-04-13T05:30:10.926Z,101723.03
2019-04-13T05:32:40.770Z,101717.45
2019-04-13T05:35:10.738Z,101723.48
2019-04-13T05:37:40.323Z,101732.08
2019-04-13T05:40:11.424Z,101726.48
2019-04-13T05:42:41.056Z,101730.79
2019-04-13T05:45:11.107Z,101726.46
2019-04-13T05:47:40.645Z,101719.57
2019-04-13T05:50:10.756Z,101726.46
2019-04-13T05:52:42.086Z,101730.31
2019-04-13T05:55:11.844Z,101729.47
2019-04-13T05:57:41.375Z,101727.73
2019-04-13T06:00:11.941Z,101735.03
2019-04-13T06:02:41.470Z,101733.34
2019-04-13T06:05:12.125Z,101731.66
2019-04-13T06:07:41.674Z,101733.80
2019-04-13T06:10:14.386Z,101733.38
2019-04-13T06:12:47.697Z,101742.40
2019-04-13T06:15:17.562Z,101734.28
2019-04-13T06:17:47.141Z,101731.25
2019-04-13T06:20:18.440Z,101741.13
2019-04-13T06:22:47.979Z,101736.83
2019-04-13T06:25:17.611Z,101737.69
2019-04-13T06:27:47.163Z,101734.72
2019-04-13T06:30:30.559Z,101739.92
2019-04-13T06:33:01.781Z,101733.49
2019-04-13T06:35:31.313Z,101738.66
2019-04-13T06:38:00.863Z,101744.23
2019-04-13T06:40:30.408Z,101741.24
2019-04-13T06:43:00.001Z,101738.23
2019-04-13T06:45:29.940Z,101740.78
2019-04-13T06:48:00.457Z,101755.80
2019-04-13T06:50:30.286Z,101748.89
2019-04-13T06:52:59.861Z,101742.83
2019-04-13T06:55:29.729Z,101745.88
2019-04-13T06:57:59.359Z,101742.94
2019-04-13T07:00:28.917Z,101738.23
2019-04-13T07:02:58.558Z,101736.55
2019-04-13T07:05:28.912Z,101732.28
2019-04-13T07:08:15.495Z,101730.15
2019-04-13T07:11:03.204Z,101735.30
2019-04-13T07:13:34.467Z,101738.36
2019-04-13T07:16:10.803Z,101740.09
2019-04-13T07:18:39.715Z,101734.90
2019-04-13T07:21:09.303Z,101734.48
2019-04-13T07:23:38.930Z,101731.06
2019-04-13T07:26:11.121Z,101732.34
2019-04-13T07:28:39.746Z,101727.63
2019-04-13T07:31:09.437Z,101732.81
2019-04-13T07:33:40.047Z,101723.77
2019-04-13T07:36:10.861Z,101725.93
2019-04-13T07:38:41.043Z,101725.52
2019-04-13T07:41:10.633Z,101729.39
2019-04-13T07:43:40.317Z,101726.83
2019-04-13T07:46:27.774Z,101735.44
2019-04-13T07:49:13.792Z,101733.69
2019-04-13T07:51:51.321Z,101737.54
2019-04-13T07:54:19.906Z,101738.84
2019-04-13T07:56:49.447Z,101730.22
2019-04-13T07:59:19.251Z,101734.54
2019-04-13T08:01:56.533Z,101737.14
2019-04-13T08:04:20.152Z,101740.16
2019-04-13T08:06:49.795Z,101737.16
2019-04-13T08:09:19.408Z,101728.13
2019-04-13T08:11:49.282Z,101732.88
2019-04-13T08:14:23.388Z,101732.03
2019-04-13T08:16:53.010Z,101733.70
2019-04-13T08:19:36.243Z,101724.67
2019-04-13T08:22:05.807Z,101730.30
2019-04-13T08:24:35.395Z,101727.28
2019-04-13T08:27:05.229Z,101727.72
2019-04-13T08:29:34.813Z,101732.45
2019-04-13T08:32:04.597Z,101719.13
2019-04-13T08:34:34.198Z,101726.47
2019-04-13T08:37:03.999Z,101723.00
2019-04-13T08:39:33.527Z,101717.84
2019-04-13T08:42:03.172Z,101721.29
2019-04-13T08:44:36.427Z,101717.86
2019-04-13T08:47:05.000Z,101721.72
2019-04-13T08:49:34.543Z,101720.02
2019-04-13T08:52:04.111Z,101720.02
2019-04-13T08:54:33.846Z,101712.69
2019-04-13T08:57:04.764Z,101713.12
2019-04-13T08:59:34.677Z,101714.41
2019-04-13T09:02:04.256Z,101712.69
2019-04-13T09:04:33.775Z,101708.84
2019-04-13T09:07:03.449Z,101712.69
2019-04-13T09:09:35.766Z,101713.57
2019-04-13T09:12:07.169Z,101709.70
2019-04-13T09:14:36.155Z,101709.27
2019-04-13T09:17:07.539Z,101709.70
2019-04-13T09:19:44.777Z,101703.23
2019-04-13T09:22:19.281Z,101705.80
2019-04-13T09:24:49.510Z,101702.79
2019-04-13T09:27:19.165Z,101692.00
2019-04-13T09:29:49.635Z,101703.19
2019-04-13T09:32:19.193Z,101696.69
2019-04-13T09:34:49.006Z,101703.55
2019-04-13T09:37:18.539Z,101695.31
2019-04-13T09:39:48.313Z,101685.83
2019-04-13T09:42:17.940Z,101681.48
2019-04-13T09:44:47.482Z,101674.55
2019-04-13T09:47:18.675Z,101685.31
2019-04-13T09:49:49.684Z,101676.69
2019-04-13T09:52:19.848Z,101674.55
2019-04-13T09:54:49.403Z,101675.70
2019-04-13T09:57:18.942Z,101660.59
2019-04-13T09:59:48.507Z,101664.43
2019-04-13T10:02:18.081Z,101664.44
2019-04-13T10:04:49.444Z,101662.25
2019-04-13T10:07:21.134Z,101662.12
2019-04-13T10:09:50.943Z,101645.78
2019-04-13T10:12:24.646Z,101638.48
2019-04-13T10:15:05.063Z,101637.37
2019-04-13T10:17:45.201Z,101648.14
2019-04-13T10:20:15.051Z,101637.22
2019-04-13T10:22:44.605Z,101639.58
2019-04-13T10:25:14.216Z,101649.27
2019-04-13T10:27:47.639Z,101638.12
2019-04-13T10:30:20.093Z,101632.86
2019-04-13T10:32:49.141Z,101632.64
2019-04-13T10:35:18.660Z,101628.92
2019-04-13T10:37:48.416Z,101621.67
2019-04-13T10:40:18.262Z,101612.65
2019-04-13T10:42:47.859Z,101609.66
2019-04-13T10:45:20.001Z,101618.20
2019-04-13T10:47:51.296Z,101611.66
2019-04-13T10:50:22.548Z,101608.19
2019-04-13T10:52:54.309Z,101605.66
2019-04-13T10:55:23.968Z,101607.61
2019-04-13T10:57:57.328Z,101607.92
2019-04-13T11:00:27.106Z,101599.63
2019-04-13T11:02:56.900Z,101588.71
2019-04-13T11:05:26.877Z,101581.57
2019-04-13T11:07:56.703Z,101582.48
2019-04-13T11:10:26.325Z,101593.45
2019-04-13T11:13:01.652Z,101600.07
2019-04-13T11:15:34.374Z,101598.68
2019-04-13T11:18:04.194Z,101599.33
2019-04-13T11:20:33.953Z,101601.16
2019-04-13T11:23:03.557Z,101596.00
2019-04-13T11:25:33.416Z,101601.16
2019-04-13T11:28:07.350Z,101593.94
2019-04-13T11:30:34.768Z,101602.71
2019-04-13T11:33:05.441Z,101609.02
2019-04-13T11:35:35.716Z,101608.67
2019-04-13T11:38:06.048Z,101616.52
2019-04-13T11:40:36.349Z,101610.09
2019-04-13T11:43:10.506Z,101604.48
2019-04-13T11:45:47.250Z,101596.34
2019-04-13T11:48:22.353Z,101587.13
2019-04-13T11:51:00.482Z,101575.24
2019-04-13T11:53:30.475Z,101573.89
2019-04-13T11:56:02.417Z,101573.30
2019-04-13T11:58:31.307Z,101567.64
2019-04-13T12:01:02.073Z,101572.16
2019-04-13T12:03:31.472Z,101566.97
2019-04-13T12:06:18.983Z,101563.84
2019-04-13T12:08:50.167Z,101563.41
2019-04-13T12:11:23.763Z,101555.27
2019-04-13T12:13:54.988Z,101566.50
2019-04-13T12:16:27.017Z,101566.03
2019-04-13T12:19:01.063Z,101570.03
2019-04-13T12:21:48.352Z,101573.30
2019-04-13T12:24:19.559Z,101562.66
2019-04-13T12:26:49.107Z,101569.44
2019-04-13T12:29:18.650Z,101564.95
2019-04-13T12:31:48.599Z,101560.88
2019-04-13T12:34:18.186Z,101556.81
2019-04-13T12:36:47.891Z,101551.47
2019-04-13T12:39:17.757Z,101558.66
2019-04-13T12:41:54.569Z,101549.06
2019-04-13T12:44:36.523Z,101558.70
2019-04-13T12:46:55.485Z,101561.38
2019-04-13T12:49:25.077Z,101560.02
2019-04-13T12:51:54.618Z,101570.40
2019-04-13T12:54:24.161Z,101562.22
2019-04-13T12:56:53.705Z,101568.83
2019-04-13T12:59:23.282Z,101572.34
2019-04-13T13:02:00.686Z,101560.88
2019-04-13T13:04:31.937Z,101563.03
2019-04-13T13:07:03.759Z,101568.81
2019-04-13T13:09:32.933Z,101556.61
2019-04-13T13:12:02.469Z,101556.64
2019-04-13T13:14:32.602Z,101556.59
2019-04-13T13:17:02.637Z,101550.03
2019-04-13T13:19:32.207Z,101545.98
2019-04-13T13:22:03.058Z,101540.62
2019-04-13T13:24:32.635Z,101536.53
2019-04-13T13:27:02.837Z,101527.56
2019-04-13T13:29:32.751Z,101522.09
2019-04-13T13:32:02.287Z,101517.57
2019-04-13T13:34:31.923Z,101518.95
2019-04-13T13:37:01.487Z,101515.71
2019-04-13T13:39:31.101Z,101535.83
2019-04-13T13:42:00.704Z,101547.68
2019-04-13T13:44:30.247Z,101551.50
2019-04-13T13:46:59.834Z,101563.52
2019-04-13T13:49:29.400Z,101547.69
2019-04-13T13:52:01.832Z,101564.03
2019-04-13T13:54:31.585Z,101575.52
2019-04-13T13:57:02.853Z,101576.72
2019-04-13T13:59:32.533Z,101586.23
2019-04-13T14:02:03.752Z,101583.83
2019-04-13T14:04:33.430Z,101583.09
2019-04-13T14:07:03.107Z,101583.13
2019-04-13T14:09:32.690Z,101575.84
2019-04-13T14:12:02.540Z,101566.36
2019-04-13T14:14:32.112Z,101562.49
2019-04-13T14:17:01.936Z,101558.19
2019-04-13T14:19:31.610Z,101557.34
2019-04-13T14:22:01.172Z,101562.92
2019-04-13T14:24:30.783Z,101565.47
2019-04-13T14:27:00.556Z,101566.25
2019-04-13T14:29:30.113Z,101570.55
2019-04-13T14:32:00.030Z,101570.54
2019-04-13T14:34:29.789Z,101570.48
2019-04-13T14:36:59.445Z,101571.75
2019-04-13T14:39:29.005Z,101570.41
2019-04-13T14:41:58.623Z,101571.22
2019-04-13T14:44:28.221Z,101571.14
2019-04-13T14:46:57.761Z,101575.48
2019-04-13T14:49:28.116Z,101579.44
2019-04-13T14:51:58.516Z,101571.77
2019-04-13T14:54:28.669Z,101575.64
2019-04-13T14:56:58.240Z,101581.25
2019-04-13T14:59:27.798Z,101571.83
2019-04-13T15:01:57.387Z,101571.48
2019-04-13T15:04:26.943Z,101567.20
2019-04-13T15:06:56.487Z,101564.21
2019-04-13T15:09:26.014Z,101566.36
2019-04-13T15:11:55.825Z,101559.50
2019-04-13T15:14:25.868Z,101562.09
2019-04-13T15:16:58.526Z,101569.83
2019-04-13T15:19:38.263Z,101566.36
2019-04-13T15:22:03.533Z,101563.75
2019-04-13T15:24:33.314Z,101564.17
2019-04-13T15:27:07.474Z,101572.32
2019-04-13T15:29:35.565Z,101570.60
2019-04-13T15:32:06.437Z,101559.84
2019-04-13T15:34:38.912Z,101566.73
2019-04-13T15:37:09.802Z,101562.84
2019-04-13T15:39:43.616Z,101559.32
2019-04-13T15:42:16.748Z,101556.69
2019-04-13T15:44:45.340Z,101551.44
2019-04-13T15:47:17.187Z,101553.97
2019-04-13T15:49:44.561Z,101557.89
2019-04-13T15:52:14.345Z,101551.39
2019-04-13T15:54:43.930Z,101549.28
2019-04-13T15:57:14.695Z,101556.18
2019-04-13T15:59:44.361Z,101558.31
2019-04-13T16:02:14.288Z,101556.98
2019-04-13T16:04:45.611Z,101558.23
2019-04-13T16:07:15.905Z,101563.89
2019-04-13T16:09:53.336Z,101561.84
2019-04-13T16:12:25.466Z,101564.84
2019-04-13T16:14:56.869Z,101554.48
2019-04-13T16:17:27.513Z,101559.68
2019-04-13T16:19:57.122Z,101546.75
2019-04-13T16:22:27.862Z,101543.64
2019-04-13T16:24:58.814Z,101550.48
2019-04-13T16:27:30.267Z,101554.86
2019-04-13T16:30:17.805Z,101558.72
2019-04-13T16:32:49.187Z,101553.15
2019-04-13T16:35:24.372Z,101545.36
2019-04-13T16:37:54.894Z,101540.61
2019-04-13T16:40:24.974Z,101542.73
2019-04-13T16:42:55.155Z,101541.02
2019-04-13T16:45:36.326Z,101540.09
2019-04-13T16:48:23.533Z,101544.47
2019-04-13T16:51:11.871Z,101538.37
2019-04-13T16:53:55.995Z,101548.27
2019-04-13T16:56:39.796Z,101544.34
2019-04-13T16:59:26.548Z,101537.44
2019-04-13T17:01:58.878Z,101528.39
2019-04-13T17:04:36.097Z,101524.98
2019-04-13T17:07:06.880Z,101537.95
2019-04-13T17:09:37.142Z,101538.42
2019-04-13T17:12:19.360Z,101533.26
2019-04-13T17:14:39.225Z,101528.02
2019-04-13T17:17:09.371Z,101529.38
2019-04-13T17:19:44.978Z,101532.41
2019-04-13T17:22:17.459Z,101534.55
2019-04-13T17:24:57.542Z,101537.16
2019-04-13T17:27:32.222Z,101535.41
2019-04-13T17:30:17.519Z,101537.14
2019-04-13T17:33:02.079Z,101538.01
2019-04-13T17:35:32.334Z,101550.58
2019-04-13T17:38:02.781Z,101546.73
2019-04-13T17:40:34.186Z,101541.98
2019-04-13T17:43:09.496Z,101548.47
2019-04-13T17:45:50.630Z,101550.20
2019-04-13T17:48:34.047Z,101539.97
2019-04-13T17:51:12.516Z,101541.71
2019-04-13T17:53:53.756Z,101543.88
2019-04-13T17:56:24.268Z,101548.59
2019-04-13T17:58:54.605Z,101547.76
2019-04-13T18:01:43.911Z,101547.80
2019-04-13T18:04:21.275Z,101553.80
2019-04-13T18:07:09.376Z,101547.36
2019-04-13T18:09:53.764Z,101558.12
2019-04-13T18:12:37.420Z,101561.14
2019-04-13T18:14:58.845Z,101559.41
2019-04-13T18:17:28.408Z,101561.12
2019-04-13T18:19:58.581Z,101569.29
2019-04-13T18:22:28.845Z,101563.72
2019-04-13T18:24:59.145Z,101566.30
2019-04-13T18:27:30.899Z,101574.88
2019-04-13T18:30:11.396Z,101582.25
2019-04-13T18:32:32.364Z,101586.19
2019-04-13T18:35:02.775Z,101590.49
2019-04-13T18:37:32.825Z,101593.52
2019-04-13T18:40:03.705Z,101599.52
2019-04-13T18:42:34.678Z,101597.80
2019-04-13T18:45:06.307Z,101603.39
2019-04-13T18:47:37.000Z,101591.79
2019-04-13T18:50:08.393Z,101594.78
2019-04-13T18:52:38.737Z,101601.67
2019-04-13T18:55:08.630Z,101597.37
2019-04-13T18:57:38.339Z,101609.40
2019-04-13T19:00:09.489Z,101610.69
2019-04-13T19:02:39.834Z,101611.98
2019-04-13T19:05:10.247Z,101618.80
2019-04-13T19:07:39.976Z,101615.38
2019-04-13T19:10:09.762Z,101611.94
2019-04-13T19:12:39.355Z,101616.65
2019-04-13T19:15:09.560Z,101615.80
2019-04-13T19:17:39.302Z,101617.11
2019-04-13T19:20:09.493Z,101624.83
2019-04-13T19:22:39.073Z,101611.95
2019-04-13T19:25:09.085Z,101619.27
2019-04-13T19:27:38.640Z,101615.80
2019-04-13T19:30:08.854Z,101620.97
2019-04-13T19:32:38.388Z,101625.27
2019-04-13T19:35:08.536Z,101627.40
2019-04-13T19:37:38.066Z,101623.12
2019-04-13T19:40:07.817Z,101614.96
2019-04-13T19:42:37.430Z,101620.98
2019-04-13T19:45:08.582Z,101620.53
2019-04-13T19:47:38.389Z,101619.25
2019-04-13T19:50:11.397Z,101617.98
2019-04-13T19:52:46.466Z,101608.94
2019-04-13T19:55:16.046Z,101608.48
2019-04-13T19:57:45.759Z,101606.36
2019-04-13T20:00:17.232Z,101606.37
2019-04-13T20:02:46.803Z,101605.09
2019-04-13T20:05:16.337Z,101593.44
2019-04-13T20:07:45.921Z,101599.90
2019-04-13T20:10:15.510Z,101602.48
2019-04-13T20:12:45.067Z,101594.73
2019-04-13T20:15:16.039Z,101601.61
2019-04-13T20:17:45.773Z,101602.02
2019-04-13T20:20:15.731Z,101603.73
2019-04-13T20:22:45.514Z,101600.73
2019-04-13T20:25:15.740Z,101606.33
2019-04-13T20:27:45.727Z,101607.59
2019-04-13T20:30:15.913Z,101602.89
2019-04-13T20:32:45.568Z,101601.13
2019-04-13T20:35:15.182Z,101599.86
2019-04-13T20:37:44.850Z,101599.43
2019-04-13T20:40:16.448Z,101595.98
2019-04-13T20:42:46.013Z,101599.41
2019-04-13T20:45:15.791Z,101601.16
2019-04-13T20:47:45.889Z,101601.55
2019-04-13T20:50:15.772Z,101605.85
2019-04-13T20:52:45.349Z,101595.13
2019-04-13T20:55:15.946Z,101599.02
2019-04-13T20:57:45.718Z,101594.73
2019-04-13T21:00:18.124Z,101599.03
2019-04-13T21:02:48.331Z,101590.45
2019-04-13T21:05:18.588Z,101593.47
2019-04-13T21:07:48.836Z,101590.03
2019-04-13T21:10:18.505Z,101596.05
2019-04-13T21:12:48.048Z,101608.06
2019-04-13T21:15:18.262Z,101604.62
2019-04-13T21:17:48.559Z,101607.22
2019-04-13T21:20:18.634Z,101605.50
2019-04-13T21:22:48.560Z,101603.76
2019-04-13T21:25:18.450Z,101602.91
2019-04-13T21:27:48.852Z,101603.77
2019-04-13T21:30:18.888Z,101595.16
2019-04-13T21:32:48.750Z,101594.67
2019-04-13T21:35:18.765Z,101600.70
2019-04-13T21:37:48.800Z,101596.78
2019-04-13T21:40:18.781Z,101597.66
2019-04-13T21:42:49.103Z,101597.22
2019-04-13T21:45:18.937Z,101592.97
2019-04-13T21:47:49.222Z,101589.53
2019-04-13T21:50:21.816Z,101597.25
2019-04-13T21:52:54.154Z,101591.23
2019-04-13T21:55:37.728Z,101586.07
2019-04-13T21:58:07.912Z,101589.09
2019-04-13T22:00:49.507Z,101593.37
2019-04-13T22:03:20.767Z,101593.81
2019-04-13T22:05:50.738Z,101591.22
2019-04-13T22:08:20.931Z,101599.39
2019-04-13T22:10:50.837Z,101594.25
2019-04-13T22:13:20.797Z,101599.37
2019-04-13T22:15:50.690Z,101595.95
2019-04-13T22:18:21.186Z,101596.78
2019-04-13T22:20:52.017Z,101598.08
2019-04-13T22:23:21.630Z,101595.92
2019-04-13T22:25:51.610Z,101602.77
2019-04-13T22:28:23.598Z,101596.31
2019-04-13T22:31:00.773Z,101601.88
2019-04-13T22:33:30.753Z,101599.75
2019-04-13T22:36:18.288Z,101598.91
2019-04-13T22:38:48.017Z,101604.91
2019-04-13T22:41:17.844Z,101603.20
2019-04-13T22:43:47.988Z,101607.08
2019-04-13T22:46:17.879Z,101605.37
2019-04-13T22:48:49.078Z,101601.93
2019-04-13T22:51:20.493Z,101602.34
2019-04-13T22:53:52.919Z,101608.36
2019-04-13T22:56:26.861Z,101602.34
2019-04-13T22:58:57.939Z,101606.67
2019-04-13T23:01:35.461Z,101602.81
2019-04-13T23:04:05.976Z,101592.50
2019-04-13T23:06:35.945Z,101597.70
2019-04-13T23:09:08.556Z,101588.24
2019-04-13T23:11:38.937Z,101590.81
2019-04-13T23:14:09.161Z,101600.25
2019-04-13T23:16:39.185Z,101593.83
2019-04-13T23:19:09.408Z,101600.71
2019-04-13T23:21:39.808Z,101598.16
2019-04-13T23:24:10.254Z,101593.84
2019-04-13T23:26:40.939Z,101598.16
2019-04-13T23:29:10.768Z,101592.58
2019-04-13T23:31:41.155Z,101594.27
2019-04-13T23:34:11.457Z,101601.59
2019-04-13T23:36:42.226Z,101598.56
2019-04-13T23:39:12.681Z,101593.42
2019-04-13T23:41:42.892Z,101599.44
2019-04-13T23:44:13.442Z,101593.84
2019-04-13T23:46:43.997Z,101598.16
2019-04-13T23:49:14.522Z,101599.05
2019-04-13T23:51:44.643Z,101588.73
2019-04-13T23:54:15.296Z,101584.44
2019-04-13T23:56:52.670Z,101594.74
2019-04-13T23:59:30.787Z,101589.58
